Philadelphia, Pennsylvania
Traffic Map
Current Weather Conditions
Philadelphia, Pennsylvania
Overcast Haze
Overcast

Feels Like: 6°
Wind Chill: Ceiling: 500
Heat Index: Visibility: 6mi
Dew Point: Wind: 7mph
Humidity: 96% Direction: 30° (NNE)
Pressure: 29.7in Gusts: 0mph
Raw Report DataKPHL 221203Z 03006KT 6SM BR BKN005 OVC009 08/07 A2970 RMK AO2 CIG 003V007 T00780072
Traffic Incident Summary
Active as of:
Severity:
Category:
InformationThere was an issue retrieving the traffic information for this location. Please try a different location or try again shortly.
Advertisements
Track Severe Weather on mobile